sensor_id;sensor_type;location;lat;lon;timestamp;temperature;humidity
3684;DHT22;1858;48.716;9.648;2023-09-19T00:01:27;18.10;1.00
3684;DHT22;1858;48.716;9.648;2023-09-19T00:04:15;18.00;1.00
3684;DHT22;1858;48.716;9.648;2023-09-19T00:07:01;18.00;1.00
3684;DHT22;1858;48.716;9.648;2023-09-19T00:09:47;18.00;1.00
3684;DHT22;1858;48.716;9.648;2023-09-19T00:12:33;18.10;1.00
3684;DHT22;1858;48.716;9.648;2023-09-19T00:15:20;18.10;1.00
3684;DHT22;1858;48.716;9.648;2023-09-19T00:18:26;18.00;1.00
3684;DHT22;1858;48.716;9.648;2023-09-19T00:21:14;17.90;6.10
3684;DHT22;1858;48.716;9.648;2023-09-19T00:24:00;17.90;99.90
3684;DHT22;1858;48.716;9.648;2023-09-19T00:26:47;17.90;99.90
3684;DHT22;1858;48.716;9.648;2023-09-19T00:29:35;17.90;99.90
3684;DHT22;1858;48.716;9.648;2023-09-19T00:32:21;17.90;99.90
3684;DHT22;1858;48.716;9.648;2023-09-19T00:35:07;17.90;99.90
3684;DHT22;1858;48.716;9.648;2023-09-19T00:37:57;17.90;99.90
3684;DHT22;1858;48.716;9.648;2023-09-19T00:41:03;18.00;99.90
3684;DHT22;1858;48.716;9.648;2023-09-19T00:43:49;18.10;86.00
3684;DHT22;1858;48.716;9.648;2023-09-19T00:46:35;18.00;1.00
3684;DHT22;1858;48.716;9.648;2023-09-19T00:49:22;17.90;59.10
3684;DHT22;1858;48.716;9.648;2023-09-19T00:52:11;17.90;99.90
3684;DHT22;1858;48.716;9.648;2023-09-19T00:54:58;17.90;99.90
3684;DHT22;1858;48.716;9.648;2023-09-19T00:57:46;17.90;99.90
3684;DHT22;1858;48.716;9.648;2023-09-19T01:00:53;17.90;99.90
3684;DHT22;1858;48.716;9.648;2023-09-19T01:03:41;18.00;99.90
3684;DHT22;1858;48.716;9.648;2023-09-19T01:06:28;18.00;66.80
3684;DHT22;1858;48.716;9.648;2023-09-19T01:09:16;18.00;46.60
3684;DHT22;1858;48.716;9.648;2023-09-19T01:12:05;18.00;17.40
3684;DHT22;1858;48.716;9.648;2023-09-19T01:15:04;18.00;96.20
3684;DHT22;1858;48.716;9.648;2023-09-19T01:21:09;17.90;1.00
3684;DHT22;1858;48.716;9.648;2023-09-19T01:30:10;17.90;1.00
3684;DHT22;1858;48.716;9.648;2023-09-19T01:32:57;17.90;1.00
3684;DHT22;1858;48.716;9.648;2023-09-19T01:35:45;17.80;1.00
3684;DHT22;1858;48.716;9.648;2023-09-19T01:38:31;17.80;1.00
3684;DHT22;1858;48.716;9.648;2023-09-19T01:41:21;17.80;1.00
3684;DHT22;1858;48.716;9.648;2023-09-19T01:47:33;17.70;1.00
3684;DHT22;1858;48.716;9.648;2023-09-19T01:53:33;17.70;1.00
3684;DHT22;1858;48.716;9.648;2023-09-19T01:56:21;17.70;1.00
3684;DHT22;1858;48.716;9.648;2023-09-19T01:59:16;17.70;1.00
3684;DHT22;1858;48.716;9.648;2023-09-19T02:02:04;17.70;1.00
3684;DHT22;1858;48.716;9.648;2023-09-19T02:04:52;17.80;1.00
3684;DHT22;1858;48.716;9.648;2023-09-19T02:07:59;17.70;1.00
3684;DHT22;1858;48.716;9.648;2023-09-19T02:10:45;17.70;1.00
3684;DHT22;1858;48.716;9.648;2023-09-19T02:13:33;17.70;1.00
3684;DHT22;1858;48.716;9.648;2023-09-19T02:16:20;17.70;1.00
3684;DHT22;1858;48.716;9.648;2023-09-19T02:19:07;17.70;1.00
3684;DHT22;1858;48.716;9.648;2023-09-19T02:21:53;17.70;12.90
3684;DHT22;1858;48.716;9.648;2023-09-19T02:24:40;17.70;1.00
3684;DHT22;1858;48.716;9.648;2023-09-19T02:27:26;17.70;4.90
3684;DHT22;1858;48.716;9.648;2023-09-19T02:30:13;17.90;2.50
3684;DHT22;1858;48.716;9.648;2023-09-19T02:33:20;17.80;1.00
3684;DHT22;1858;48.716;9.648;2023-09-19T02:36:26;17.80;1.00
3684;DHT22;1858;48.716;9.648;2023-09-19T02:39:12;17.80;1.00
3684;DHT22;1858;48.716;9.648;2023-09-19T02:41:59;17.80;1.00
3684;DHT22;1858;48.716;9.648;2023-09-19T02:44:45;17.80;1.00
3684;DHT22;1858;48.716;9.648;2023-09-19T02:47:33;17.80;1.00
3684;DHT22;1858;48.716;9.648;2023-09-19T02:50:20;17.80;1.00
3684;DHT22;1858;48.716;9.648;2023-09-19T02:53:26;17.70;1.00
3684;DHT22;1858;48.716;9.648;2023-09-19T02:56:13;17.70;1.00
3684;DHT22;1858;48.716;9.648;2023-09-19T02:59:01;17.60;1.00
3684;DHT22;1858;48.716;9.648;2023-09-19T03:01:48;17.50;5.80
3684;DHT22;1858;48.716;9.648;2023-09-19T03:04:34;17.40;74.60
3684;DHT22;1858;48.716;9.648;2023-09-19T03:07:21;17.40;89.70
3684;DHT22;1858;48.716;9.648;2023-09-19T03:10:08;17.30;99.90
3684;DHT22;1858;48.716;9.648;2023-09-19T03:12:55;17.20;99.90
3684;DHT22;1858;48.716;9.648;2023-09-19T03:15:42;17.20;99.90
3684;DHT22;1858;48.716;9.648;2023-09-19T03:18:35;17.10;99.90
3684;DHT22;1858;48.716;9.648;2023-09-19T03:21:21;17.00;99.90
3684;DHT22;1858;48.716;9.648;2023-09-19T03:24:26;17.00;99.90
3684;DHT22;1858;48.716;9.648;2023-09-19T03:27:14;16.90;99.90
3684;DHT22;1858;48.716;9.648;2023-09-19T03:30:01;16.90;99.90
3684;DHT22;1858;48.716;9.648;2023-09-19T03:32:50;16.80;1.00
3684;DHT22;1858;48.716;9.648;2023-09-19T03:35:36;16.80;1.00
3684;DHT22;1858;48.716;9.648;2023-09-19T03:38:23;16.80;1.00
3684;DHT22;1858;48.716;9.648;2023-09-19T03:41:09;16.90;1.00
3684;DHT22;1858;48.716;9.648;2023-09-19T03:43:57;16.90;1.00
3684;DHT22;1858;48.716;9.648;2023-09-19T03:46:43;17.00;1.00
3684;DHT22;1858;48.716;9.648;2023-09-19T03:49:30;17.00;1.00
3684;DHT22;1858;48.716;9.648;2023-09-19T03:52:16;17.00;1.00
3684;DHT22;1858;48.716;9.648;2023-09-19T03:55:03;17.10;1.00
3684;DHT22;1858;48.716;9.648;2023-09-19T03:57:50;17.20;1.00
3684;DHT22;1858;48.716;9.648;2023-09-19T04:00:38;17.20;1.00
3684;DHT22;1858;48.716;9.648;2023-09-19T04:03:24;17.20;99.90
3684;DHT22;1858;48.716;9.648;2023-09-19T04:06:16;17.30;99.90
3684;DHT22;1858;48.716;9.648;2023-09-19T04:09:03;17.30;99.90
3684;DHT22;1858;48.716;9.648;2023-09-19T04:11:52;17.30;99.90
3684;DHT22;1858;48.716;9.648;2023-09-19T04:14:39;17.30;99.90
3684;DHT22;1858;48.716;9.648;2023-09-19T04:17:25;17.40;99.90
3684;DHT22;1858;48.716;9.648;2023-09-19T04:20:11;17.40;99.90
3684;DHT22;1858;48.716;9.648;2023-09-19T04:22:58;17.30;99.90
3684;DHT22;1858;48.716;9.648;2023-09-19T04:25:45;17.20;99.90
3684;DHT22;1858;48.716;9.648;2023-09-19T04:28:31;17.10;99.90
3684;DHT22;1858;48.716;9.648;2023-09-19T04:31:19;17.00;99.90
3684;DHT22;1858;48.716;9.648;2023-09-19T04:34:07;16.90;99.90
3684;DHT22;1858;48.716;9.648;2023-09-19T04:37:13;16.80;99.90
3684;DHT22;1858;48.716;9.648;2023-09-19T04:40:00;16.70;99.90
3684;DHT22;1858;48.716;9.648;2023-09-19T04:42:53;16.70;1.00
3684;DHT22;1858;48.716;9.648;2023-09-19T04:45:41;16.60;1.00
3684;DHT22;1858;48.716;9.648;2023-09-19T04:48:27;16.60;1.00
3684;DHT22;1858;48.716;9.648;2023-09-19T04:51:14;16.50;1.00
3684;DHT22;1858;48.716;9.648;2023-09-19T04:54:00;16.70;99.90
3684;DHT22;1858;48.716;9.648;2023-09-19T04:56:48;16.70;1.00
3684;DHT22;1858;48.716;9.648;2023-09-19T04:59:34;16.70;1.00
3684;DHT22;1858;48.716;9.648;2023-09-19T05:02:21;16.60;1.00
3684;DHT22;1858;48.716;9.648;2023-09-19T05:05:08;16.60;1.00
3684;DHT22;1858;48.716;9.648;2023-09-19T05:07:59;16.50;3.30
3684;DHT22;1858;48.716;9.648;2023-09-19T05:10:46;16.50;99.90
3684;DHT22;1858;48.716;9.648;2023-09-19T05:13:33;16.60;99.90
3684;DHT22;1858;48.716;9.648;2023-09-19T05:16:20;16.70;99.90
3684;DHT22;1858;48.716;9.648;2023-09-19T05:19:06;16.70;99.90
3684;DHT22;1858;48.716;9.648;2023-09-19T05:21:57;16.70;99.90
3684;DHT22;1858;48.716;9.648;2023-09-19T05:24:44;16.70;96.70
3684;DHT22;1858;48.716;9.648;2023-09-19T05:27:31;16.70;63.10
3684;DHT22;1858;48.716;9.648;2023-09-19T05:30:19;16.80;48.60
3684;DHT22;1858;48.716;9.648;2023-09-19T05:33:05;16.80;34.00
3684;DHT22;1858;48.716;9.648;2023-09-19T05:35:52;16.90;32.90
3684;DHT22;1858;48.716;9.648;2023-09-19T05:38:39;17.00;13.40
3684;DHT22;1858;48.716;9.648;2023-09-19T05:41:27;17.30;1.00
3684;DHT22;1858;48.716;9.648;2023-09-19T05:44:14;17.50;1.00
3684;DHT22;1858;48.716;9.648;2023-09-19T05:47:00;17.70;99.90
3684;DHT22;1858;48.716;9.648;2023-09-19T05:49:46;17.80;99.90
3684;DHT22;1858;48.716;9.648;2023-09-19T05:52:39;17.80;99.90
3684;DHT22;1858;48.716;9.648;2023-09-19T05:55:23;17.80;99.90
3684;DHT22;1858;48.716;9.648;2023-09-19T05:58:10;17.90;99.90
3684;DHT22;1858;48.716;9.648;2023-09-19T06:00:58;17.90;99.90
3684;DHT22;1858;48.716;9.648;2023-09-19T06:03:44;17.90;1.00
3684;DHT22;1858;48.716;9.648;2023-09-19T06:06:31;17.80;1.00
3684;DHT22;1858;48.716;9.648;2023-09-19T06:09:19;17.80;1.00
3684;DHT22;1858;48.716;9.648;2023-09-19T06:12:07;17.80;1.00
3684;DHT22;1858;48.716;9.648;2023-09-19T06:14:53;17.70;31.30
3684;DHT22;1858;48.716;9.648;2023-09-19T06:17:46;17.70;99.90
3684;DHT22;1858;48.716;9.648;2023-09-19T06:20:28;17.50;99.90
3684;DHT22;1858;48.716;9.648;2023-09-19T06:23:15;17.50;1.00
3684;DHT22;1858;48.716;9.648;2023-09-19T06:26:01;17.40;1.00
3684;DHT22;1858;48.716;9.648;2023-09-19T06:28:49;17.40;1.00
3684;DHT22;1858;48.716;9.648;2023-09-19T06:31:38;17.50;1.00
3684;DHT22;1858;48.716;9.648;2023-09-19T06:34:24;17.50;1.00
3684;DHT22;1858;48.716;9.648;2023-09-19T06:37:11;17.60;1.00
3684;DHT22;1858;48.716;9.648;2023-09-19T06:39:58;17.70;1.00
3684;DHT22;1858;48.716;9.648;2023-09-19T06:42:52;17.70;1.00
3684;DHT22;1858;48.716;9.648;2023-09-19T06:45:36;17.80;99.90
3684;DHT22;1858;48.716;9.648;2023-09-19T06:48:22;17.80;99.90
3684;DHT22;1858;48.716;9.648;2023-09-19T06:51:10;17.70;1.00
3684;DHT22;1858;48.716;9.648;2023-09-19T06:53:57;17.70;99.90
3684;DHT22;1858;48.716;9.648;2023-09-19T06:56:44;17.60;1.00
3684;DHT22;1858;48.716;9.648;2023-09-19T06:59:30;17.50;77.30
3684;DHT22;1858;48.716;9.648;2023-09-19T07:02:18;17.40;99.90
3684;DHT22;1858;48.716;9.648;2023-09-19T07:05:05;17.20;99.90
3684;DHT22;1858;48.716;9.648;2023-09-19T07:07:52;17.10;1.00
3684;DHT22;1858;48.716;9.648;2023-09-19T07:10:41;17.00;33.10
3684;DHT22;1858;48.716;9.648;2023-09-19T07:13:29;17.00;99.90
3684;DHT22;1858;48.716;9.648;2023-09-19T07:16:16;16.90;99.90
3684;DHT22;1858;48.716;9.648;2023-09-19T07:19:04;16.90;1.00
3684;DHT22;1858;48.716;9.648;2023-09-19T07:21:50;16.80;1.00
3684;DHT22;1858;48.716;9.648;2023-09-19T07:24:36;16.80;1.00
3684;DHT22;1858;48.716;9.648;2023-09-19T07:27:24;16.80;9.80
3684;DHT22;1858;48.716;9.648;2023-09-19T07:30:10;16.90;52.10
3684;DHT22;1858;48.716;9.648;2023-09-19T07:32:57;17.20;73.20
3684;DHT22;1858;48.716;9.648;2023-09-19T07:35:45;17.50;15.70
3684;DHT22;1858;48.716;9.648;2023-09-19T07:38:32;18.00;1.00
3684;DHT22;1858;48.716;9.648;2023-09-19T07:41:20;18.60;1.00
3684;DHT22;1858;48.716;9.648;2023-09-19T07:44:07;19.10;99.90
3684;DHT22;1858;48.716;9.648;2023-09-19T07:46:55;19.70;1.00
3684;DHT22;1858;48.716;9.648;2023-09-19T07:49:42;19.90;1.00
3684;DHT22;1858;48.716;9.648;2023-09-19T07:52:48;20.10;99.90
3684;DHT22;1858;48.716;9.648;2023-09-19T07:55:36;20.00;99.90
3684;DHT22;1858;48.716;9.648;2023-09-19T07:58:23;19.90;99.90
3684;DHT22;1858;48.716;9.648;2023-09-19T08:01:10;19.90;99.90
3684;DHT22;1858;48.716;9.648;2023-09-19T08:03:58;20.10;99.90
3684;DHT22;1858;48.716;9.648;2023-09-19T08:06:44;20.10;99.90
3684;DHT22;1858;48.716;9.648;2023-09-19T08:09:30;20.00;99.90
3684;DHT22;1858;48.716;9.648;2023-09-19T08:12:18;20.00;99.90
3684;DHT22;1858;48.716;9.648;2023-09-19T08:15:26;20.10;64.80
3684;DHT22;1858;48.716;9.648;2023-09-19T08:18:12;20.30;42.70
3684;DHT22;1858;48.716;9.648;2023-09-19T08:20:58;20.50;99.90
3684;DHT22;1858;48.716;9.648;2023-09-19T08:23:46;20.70;1.00
3684;DHT22;1858;48.716;9.648;2023-09-19T08:26:32;21.00;1.00
3684;DHT22;1858;48.716;9.648;2023-09-19T08:29:18;21.50;1.00
3684;DHT22;1858;48.716;9.648;2023-09-19T08:32:05;21.80;1.00
3684;DHT22;1858;48.716;9.648;2023-09-19T08:37:57;22.20;99.90
3684;DHT22;1858;48.716;9.648;2023-09-19T08:40:45;22.30;99.90
3684;DHT22;1858;48.716;9.648;2023-09-19T08:43:31;22.50;99.90
3684;DHT22;1858;48.716;9.648;2023-09-19T08:46:18;22.70;99.90
3684;DHT22;1858;48.716;9.648;2023-09-19T08:49:08;22.70;99.90
3684;DHT22;1858;48.716;9.648;2023-09-19T08:52:01;23.10;99.90
3684;DHT22;1858;48.716;9.648;2023-09-19T08:54:44;23.50;99.90
3684;DHT22;1858;48.716;9.648;2023-09-19T08:57:33;23.50;99.90
3684;DHT22;1858;48.716;9.648;2023-09-19T09:00:21;23.80;99.90
3684;DHT22;1858;48.716;9.648;2023-09-19T09:06:07;25.20;25.20
3684;DHT22;1858;48.716;9.648;2023-09-19T09:08:52;25.30;1.00
3684;DHT22;1858;48.716;9.648;2023-09-19T09:11:38;25.10;1.00
3684;DHT22;1858;48.716;9.648;2023-09-19T09:14:25;25.00;1.00
3684;DHT22;1858;48.716;9.648;2023-09-19T09:17:11;24.50;1.00
3684;DHT22;1858;48.716;9.648;2023-09-19T09:19:58;24.10;1.00
3684;DHT22;1858;48.716;9.648;2023-09-19T09:22:53;23.80;1.00
3684;DHT22;1858;48.716;9.648;2023-09-19T09:25:53;23.40;15.10
3684;DHT22;1858;48.716;9.648;2023-09-19T09:29:00;23.10;25.70
3684;DHT22;1858;48.716;9.648;2023-09-19T09:31:47;23.20;66.60
3684;DHT22;1858;48.716;9.648;2023-09-19T09:34:35;24.30;42.40
3684;DHT22;1858;48.716;9.648;2023-09-19T09:37:22;25.30;1.00
3684;DHT22;1858;48.716;9.648;2023-09-19T09:40:10;25.50;1.00
3684;DHT22;1858;48.716;9.648;2023-09-19T09:43:13;25.60;1.00
3684;DHT22;1858;48.716;9.648;2023-09-19T09:49:03;28.20;1.00
3684;DHT22;1858;48.716;9.648;2023-09-19T09:52:04;28.70;1.00
3684;DHT22;1858;48.716;9.648;2023-09-19T09:55:00;30.20;1.00
3684;DHT22;1858;48.716;9.648;2023-09-19T10:00:57;31.10;99.90
3684;DHT22;1858;48.716;9.648;2023-09-19T10:03:45;30.70;99.90
3684;DHT22;1858;48.716;9.648;2023-09-19T10:06:42;30.70;99.90
3684;DHT22;1858;48.716;9.648;2023-09-19T10:09:47;30.60;99.90
3684;DHT22;1858;48.716;9.648;2023-09-19T10:12:33;29.80;99.90
3684;DHT22;1858;48.716;9.648;2023-09-19T10:15:21;28.90;99.90
3684;DHT22;1858;48.716;9.648;2023-09-19T10:18:11;28.50;99.90
3684;DHT22;1858;48.716;9.648;2023-09-19T10:20:59;28.50;99.90
3684;DHT22;1858;48.716;9.648;2023-09-19T10:23:50;28.70;99.90
3684;DHT22;1858;48.716;9.648;2023-09-19T10:26:38;29.40;99.90
3684;DHT22;1858;48.716;9.648;2023-09-19T10:29:28;30.00;99.90
3684;DHT22;1858;48.716;9.648;2023-09-19T10:32:16;30.50;99.90
3684;DHT22;1858;48.716;9.648;2023-09-19T10:35:06;30.70;99.90
3684;DHT22;1858;48.716;9.648;2023-09-19T10:37:57;30.90;99.90
3684;DHT22;1858;48.716;9.648;2023-09-19T10:40:44;30.90;99.90
3684;DHT22;1858;48.716;9.648;2023-09-19T10:43:32;31.00;99.90
3684;DHT22;1858;48.716;9.648;2023-09-19T10:46:19;30.90;99.90
3684;DHT22;1858;48.716;9.648;2023-09-19T10:49:05;31.30;99.90
3684;DHT22;1858;48.716;9.648;2023-09-19T10:51:54;32.00;99.90
3684;DHT22;1858;48.716;9.648;2023-09-19T10:54:46;32.60;99.90
3684;DHT22;1858;48.716;9.648;2023-09-19T10:57:53;33.10;99.90
3684;DHT22;1858;48.716;9.648;2023-09-19T11:00:58;33.20;99.90
3684;DHT22;1858;48.716;9.648;2023-09-19T11:07:10;33.30;99.90
3684;DHT22;1858;48.716;9.648;2023-09-19T11:09:57;33.70;99.90
3684;DHT22;1858;48.716;9.648;2023-09-19T11:12:48;33.10;99.90
3684;DHT22;1858;48.716;9.648;2023-09-19T11:18:52;32.90;99.90
3684;DHT22;1858;48.716;9.648;2023-09-19T11:21:39;33.10;99.90
3684;DHT22;1858;48.716;9.648;2023-09-19T11:24:31;33.10;99.90
3684;DHT22;1858;48.716;9.648;2023-09-19T11:27:45;32.70;99.90
3684;DHT22;1858;48.716;9.648;2023-09-19T11:30:27;32.30;99.90
3684;DHT22;1858;48.716;9.648;2023-09-19T11:33:21;32.50;99.90
3684;DHT22;1858;48.716;9.648;2023-09-19T11:36:16;32.50;99.90
3684;DHT22;1858;48.716;9.648;2023-09-19T11:39:04;33.00;99.90
3684;DHT22;1858;48.716;9.648;2023-09-19T11:41:53;33.50;99.90
3684;DHT22;1858;48.716;9.648;2023-09-19T11:45:00;33.20;99.90
3684;DHT22;1858;48.716;9.648;2023-09-19T11:47:46;33.10;99.90
3684;DHT22;1858;48.716;9.648;2023-09-19T11:50:34;33.10;99.90
3684;DHT22;1858;48.716;9.648;2023-09-19T11:53:23;32.70;99.90
3684;DHT22;1858;48.716;9.648;2023-09-19T11:56:10;31.90;99.90
3684;DHT22;1858;48.716;9.648;2023-09-19T11:58:57;31.40;99.90
3684;DHT22;1858;48.716;9.648;2023-09-19T12:01:50;31.40;99.90
3684;DHT22;1858;48.716;9.648;2023-09-19T12:04:44;31.20;99.90
3684;DHT22;1858;48.716;9.648;2023-09-19T12:07:42;30.90;99.90
3684;DHT22;1858;48.716;9.648;2023-09-19T12:10:33;30.70;99.90
3684;DHT22;1858;48.716;9.648;2023-09-19T12:13:47;30.60;99.90
3684;DHT22;1858;48.716;9.648;2023-09-19T12:16:30;30.20;99.90
3684;DHT22;1858;48.716;9.648;2023-09-19T12:19:19;29.80;99.90
3684;DHT22;1858;48.716;9.648;2023-09-19T12:22:07;29.50;99.90
3684;DHT22;1858;48.716;9.648;2023-09-19T12:25:02;29.10;99.90
3684;DHT22;1858;48.716;9.648;2023-09-19T12:27:45;28.80;99.90
3684;DHT22;1858;48.716;9.648;2023-09-19T12:30:43;28.40;99.90
3684;DHT22;1858;48.716;9.648;2023-09-19T12:33:30;28.30;99.90
3684;DHT22;1858;48.716;9.648;2023-09-19T12:36:23;28.20;99.90
3684;DHT22;1858;48.716;9.648;2023-09-19T12:39:11;28.00;99.90
3684;DHT22;1858;48.716;9.648;2023-09-19T12:42:00;27.90;99.90
3684;DHT22;1858;48.716;9.648;2023-09-19T12:44:51;27.70;99.90
3684;DHT22;1858;48.716;9.648;2023-09-19T12:47:40;27.50;99.90
3684;DHT22;1858;48.716;9.648;2023-09-19T12:50:27;27.30;99.90
3684;DHT22;1858;48.716;9.648;2023-09-19T12:53:25;27.20;99.90
3684;DHT22;1858;48.716;9.648;2023-09-19T12:56:14;27.20;99.90
3684;DHT22;1858;48.716;9.648;2023-09-19T12:59:28;27.00;99.90
3684;DHT22;1858;48.716;9.648;2023-09-19T13:02:08;26.80;99.90
3684;DHT22;1858;48.716;9.648;2023-09-19T13:04:56;26.40;99.90
3684;DHT22;1858;48.716;9.648;2023-09-19T13:08:17;26.10;99.90
3684;DHT22;1858;48.716;9.648;2023-09-19T13:11:14;26.00;99.90
3684;DHT22;1858;48.716;9.648;2023-09-19T13:14:21;25.80;99.90
3684;DHT22;1858;48.716;9.648;2023-09-19T13:17:12;25.80;99.90
3684;DHT22;1858;48.716;9.648;2023-09-19T13:20:02;25.90;99.90
3684;DHT22;1858;48.716;9.648;2023-09-19T13:22:50;25.90;99.90
3684;DHT22;1858;48.716;9.648;2023-09-19T13:25:38;26.10;99.90
3684;DHT22;1858;48.716;9.648;2023-09-19T13:28:25;26.10;99.90
3684;DHT22;1858;48.716;9.648;2023-09-19T13:31:13;26.30;99.90
3684;DHT22;1858;48.716;9.648;2023-09-19T13:33:59;26.30;99.90
3684;DHT22;1858;48.716;9.648;2023-09-19T13:36:46;26.10;99.90
3684;DHT22;1858;48.716;9.648;2023-09-19T13:39:36;26.20;99.90
3684;DHT22;1858;48.716;9.648;2023-09-19T13:42:42;26.10;99.90
3684;DHT22;1858;48.716;9.648;2023-09-19T13:45:28;26.10;99.90
3684;DHT22;1858;48.716;9.648;2023-09-19T13:48:16;26.00;99.90
3684;DHT22;1858;48.716;9.648;2023-09-19T13:51:04;25.70;99.90
3684;DHT22;1858;48.716;9.648;2023-09-19T13:54:09;25.50;99.90
3684;DHT22;1858;48.716;9.648;2023-09-19T13:57:16;25.50;99.90
3684;DHT22;1858;48.716;9.648;2023-09-19T14:00:03;25.40;99.90
3684;DHT22;1858;48.716;9.648;2023-09-19T14:05:49;24.70;99.90
3684;DHT22;1858;48.716;9.648;2023-09-19T14:08:36;24.60;99.90
3684;DHT22;1858;48.716;9.648;2023-09-19T14:11:23;24.60;99.90
3684;DHT22;1858;48.716;9.648;2023-09-19T14:14:10;24.70;99.90
3684;DHT22;1858;48.716;9.648;2023-09-19T14:16:56;24.70;99.90
3684;DHT22;1858;48.716;9.648;2023-09-19T14:19:44;24.60;99.90
3684;DHT22;1858;48.716;9.648;2023-09-19T14:22:31;24.70;99.90
3684;DHT22;1858;48.716;9.648;2023-09-19T14:25:18;24.80;99.90
3684;DHT22;1858;48.716;9.648;2023-09-19T14:28:05;24.90;99.90
3684;DHT22;1858;48.716;9.648;2023-09-19T14:30:53;24.80;99.90
3684;DHT22;1858;48.716;9.648;2023-09-19T14:33:40;24.80;99.90
3684;DHT22;1858;48.716;9.648;2023-09-19T14:36:27;24.70;99.90
3684;DHT22;1858;48.716;9.648;2023-09-19T14:39:13;24.40;99.90
3684;DHT22;1858;48.716;9.648;2023-09-19T14:42:00;24.40;99.90
3684;DHT22;1858;48.716;9.648;2023-09-19T14:44:46;24.30;99.90
3684;DHT22;1858;48.716;9.648;2023-09-19T14:47:33;24.40;99.90
3684;DHT22;1858;48.716;9.648;2023-09-19T14:50:20;24.50;99.90
3684;DHT22;1858;48.716;9.648;2023-09-19T14:53:08;24.40;99.90
3684;DHT22;1858;48.716;9.648;2023-09-19T14:55:56;24.30;99.90
3684;DHT22;1858;48.716;9.648;2023-09-19T14:58:42;24.30;99.90
3684;DHT22;1858;48.716;9.648;2023-09-19T15:01:28;24.30;99.90
3684;DHT22;1858;48.716;9.648;2023-09-19T15:04:15;24.10;99.90
3684;DHT22;1858;48.716;9.648;2023-09-19T15:07:02;24.20;99.90
3684;DHT22;1858;48.716;9.648;2023-09-19T15:09:49;24.20;99.90
3684;DHT22;1858;48.716;9.648;2023-09-19T15:12:36;24.20;99.90
3684;DHT22;1858;48.716;9.648;2023-09-19T15:15:22;24.20;99.90
3684;DHT22;1858;48.716;9.648;2023-09-19T15:18:09;24.20;99.90
3684;DHT22;1858;48.716;9.648;2023-09-19T15:21:00;24.30;99.90
3684;DHT22;1858;48.716;9.648;2023-09-19T15:23:46;24.30;99.90
3684;DHT22;1858;48.716;9.648;2023-09-19T15:26:32;24.30;99.90
3684;DHT22;1858;48.716;9.648;2023-09-19T15:29:18;24.30;99.90
3684;DHT22;1858;48.716;9.648;2023-09-19T15:32:05;24.30;99.90
3684;DHT22;1858;48.716;9.648;2023-09-19T15:34:51;24.30;99.90
3684;DHT22;1858;48.716;9.648;2023-09-19T15:37:38;24.20;99.90
3684;DHT22;1858;48.716;9.648;2023-09-19T15:40:24;24.10;99.90
3684;DHT22;1858;48.716;9.648;2023-09-19T15:43:11;23.90;99.90
3684;DHT22;1858;48.716;9.648;2023-09-19T15:46:00;23.80;99.90
3684;DHT22;1858;48.716;9.648;2023-09-19T15:48:47;23.80;99.90
3684;DHT22;1858;48.716;9.648;2023-09-19T15:51:52;23.70;99.90
3684;DHT22;1858;48.716;9.648;2023-09-19T15:54:39;23.70;99.90
3684;DHT22;1858;48.716;9.648;2023-09-19T15:57:27;23.50;99.90
3684;DHT22;1858;48.716;9.648;2023-09-19T16:00:14;23.40;99.90
3684;DHT22;1858;48.716;9.648;2023-09-19T16:03:21;23.10;99.90
3684;DHT22;1858;48.716;9.648;2023-09-19T16:06:10;23.10;99.90
3684;DHT22;1858;48.716;9.648;2023-09-19T16:08:58;23.00;99.90
3684;DHT22;1858;48.716;9.648;2023-09-19T16:11:44;22.90;99.90
3684;DHT22;1858;48.716;9.648;2023-09-19T16:14:31;22.90;99.90
3684;DHT22;1858;48.716;9.648;2023-09-19T16:17:17;22.80;99.90
3684;DHT22;1858;48.716;9.648;2023-09-19T16:20:04;22.80;99.90
3684;DHT22;1858;48.716;9.648;2023-09-19T16:22:52;22.70;99.90
3684;DHT22;1858;48.716;9.648;2023-09-19T16:25:39;22.70;99.90
3684;DHT22;1858;48.716;9.648;2023-09-19T16:28:25;22.60;99.90
3684;DHT22;1858;48.716;9.648;2023-09-19T16:31:11;22.50;99.90
3684;DHT22;1858;48.716;9.648;2023-09-19T16:33:58;22.50;99.90
3684;DHT22;1858;48.716;9.648;2023-09-19T16:36:44;22.50;99.90
3684;DHT22;1858;48.716;9.648;2023-09-19T16:39:31;22.40;99.90
3684;DHT22;1858;48.716;9.648;2023-09-19T16:42:19;22.40;99.90
3684;DHT22;1858;48.716;9.648;2023-09-19T16:45:05;22.30;99.90
3684;DHT22;1858;48.716;9.648;2023-09-19T16:47:52;22.10;99.90
3684;DHT22;1858;48.716;9.648;2023-09-19T16:51:04;22.10;99.90
3684;DHT22;1858;48.716;9.648;2023-09-19T16:53:51;22.00;99.90
3684;DHT22;1858;48.716;9.648;2023-09-19T16:56:39;21.90;99.90
3684;DHT22;1858;48.716;9.648;2023-09-19T16:59:25;21.80;99.90
3684;DHT22;1858;48.716;9.648;2023-09-19T17:02:11;21.70;99.90
3684;DHT22;1858;48.716;9.648;2023-09-19T17:05:18;21.60;99.90
3684;DHT22;1858;48.716;9.648;2023-09-19T17:08:05;21.50;99.90
3684;DHT22;1858;48.716;9.648;2023-09-19T17:11:00;21.50;99.90
3684;DHT22;1858;48.716;9.648;2023-09-19T17:13:47;21.40;99.90
3684;DHT22;1858;48.716;9.648;2023-09-19T17:16:54;21.20;99.90
3684;DHT22;1858;48.716;9.648;2023-09-19T17:19:41;21.10;99.90
3684;DHT22;1858;48.716;9.648;2023-09-19T17:22:28;21.00;99.90
3684;DHT22;1858;48.716;9.648;2023-09-19T17:25:15;20.90;99.90
3684;DHT22;1858;48.716;9.648;2023-09-19T17:28:01;20.80;99.90
3684;DHT22;1858;48.716;9.648;2023-09-19T17:30:48;20.70;99.90
3684;DHT22;1858;48.716;9.648;2023-09-19T17:33:34;20.60;99.90
3684;DHT22;1858;48.716;9.648;2023-09-19T17:36:22;20.50;99.90
3684;DHT22;1858;48.716;9.648;2023-09-19T17:39:09;20.50;99.90
3684;DHT22;1858;48.716;9.648;2023-09-19T17:41:56;20.40;99.90
3684;DHT22;1858;48.716;9.648;2023-09-19T17:44:43;20.30;99.90
3684;DHT22;1858;48.716;9.648;2023-09-19T17:47:29;20.20;99.90
3684;DHT22;1858;48.716;9.648;2023-09-19T17:50:18;20.10;99.90
3684;DHT22;1858;48.716;9.648;2023-09-19T17:53:04;20.00;99.90
3684;DHT22;1858;48.716;9.648;2023-09-19T17:55:50;19.90;99.90
3684;DHT22;1858;48.716;9.648;2023-09-19T17:58:37;19.70;99.90
3684;DHT22;1858;48.716;9.648;2023-09-19T18:01:24;19.70;1.40
3684;DHT22;1858;48.716;9.648;2023-09-19T18:04:12;19.50;1.00
3684;DHT22;1858;48.716;9.648;2023-09-19T18:06:59;19.40;1.00
3684;DHT22;1858;48.716;9.648;2023-09-19T18:09:46;19.30;1.00
3684;DHT22;1858;48.716;9.648;2023-09-19T18:12:32;19.20;1.00
3684;DHT22;1858;48.716;9.648;2023-09-19T18:15:18;19.10;1.00
3684;DHT22;1858;48.716;9.648;2023-09-19T18:18:05;19.00;1.00
3684;DHT22;1858;48.716;9.648;2023-09-19T18:20:53;18.90;1.00
3684;DHT22;1858;48.716;9.648;2023-09-19T18:23:39;18.80;1.00
3684;DHT22;1858;48.716;9.648;2023-09-19T18:26:29;18.70;1.00
3684;DHT22;1858;48.716;9.648;2023-09-19T18:29:15;18.60;1.00
3684;DHT22;1858;48.716;9.648;2023-09-19T18:32:01;18.50;1.00
3684;DHT22;1858;48.716;9.648;2023-09-19T18:34:48;18.40;1.00
3684;DHT22;1858;48.716;9.648;2023-09-19T18:37:34;18.30;1.00
3684;DHT22;1858;48.716;9.648;2023-09-19T18:40:22;18.30;1.00
3684;DHT22;1858;48.716;9.648;2023-09-19T18:43:08;18.10;1.00
3684;DHT22;1858;48.716;9.648;2023-09-19T18:45:57;18.00;1.00
3684;DHT22;1858;48.716;9.648;2023-09-19T18:49:03;18.00;1.00
3684;DHT22;1858;48.716;9.648;2023-09-19T18:51:50;17.90;1.00
3684;DHT22;1858;48.716;9.648;2023-09-19T18:54:36;17.80;1.00
3684;DHT22;1858;48.716;9.648;2023-09-19T18:57:24;17.80;1.00
3684;DHT22;1858;48.716;9.648;2023-09-19T19:00:12;17.70;1.00
3684;DHT22;1858;48.716;9.648;2023-09-19T19:03:00;17.60;1.00
3684;DHT22;1858;48.716;9.648;2023-09-19T19:05:46;17.50;39.20
3684;DHT22;1858;48.716;9.648;2023-09-19T19:08:33;17.40;75.30